Airfield :
LOGIN :

Register | Disclaimer

   EN    FR    IT 

 










Legend :    VFR   Marginal VFR   IFR   Intensive IFR   Very Intensive IFR
Visi :
Ceiling :
>= 8 km
>= 3000ft
5 to 8 km
1000 to 3000 ft
1500m to 5 km
500 to 1000 ft
800 to 1500m
200 to 500 ft
< 800m
< 200 ft
Symbols :   Thunderstorms  Fog  Heavy snow  Heavy precipitations  Wind > 20 kt
SIGMETs :     Misc.  Thunderstorms  Icing  Turbulence  Mountain Waves  Volcanic Ashes







- Airport Elevation : 1020 ft
- IATA code : ILZ


LZZI - Žilina

CURRENT METAR :
  • 142100Z VRB01KT CAVOK 20/18 Q1013

EXPIRED METARs :
  • 142030Z 00000KT 9999 -RA SCT062 OVC088 21/17 Q1013
  • 142000Z VRB02KT CAVOK 21/18 Q1013
  • 141930Z VRB02KT CAVOK 21/17 Q1013
  • 141900Z VRB02KT CAVOK 22/17 Q1013
  • 141830Z 13002KT CAVOK 22/16 Q1013

TAF TAF LZZI
Valid from the 14 at 21:00 until the 15 at 06:00 UTC


142000Z 1421/1506 VRB02KT CAVOK
TEMPO 1500/1506 3000 BR SCT005
PROB40
TEMPO 1501/1505 0600 FG BKN001
No reported NOTAMs for that airfield.



MET'MAP, your aeronautical weather chart ! - Copyright ORBIFLY December 2007 - Disclaimer

ORBIFLY MET'MAP TEAM :

Programming & Development : Alexandra Zaïnal
Concept & Development : Baudouin d'Aumeries
Co-Development & Prog : Marc-Olivier Méhu
Technical & hardware support : Manuel Goepfert

Contact : metmap@orbifly.com




SOURCES & CREDITS :

   NOAA